createdAt,value
2019-03-25T00:04:50.826Z,6.9
2019-03-25T00:09:50.390Z,7
2019-03-25T00:14:50.633Z,7.1
2019-03-25T00:19:50.624Z,7.2
2019-03-25T00:24:50.490Z,7.3
2019-03-25T00:29:50.473Z,7.6
2019-03-25T00:34:50.554Z,7.9
2019-03-25T00:39:50.459Z,8
2019-03-25T00:44:50.785Z,8.1
2019-03-25T00:49:50.424Z,8.3
2019-03-25T00:54:50.511Z,8.3
2019-03-25T00:59:50.610Z,8.3
2019-03-25T01:04:50.749Z,8.3
2019-03-25T01:09:50.663Z,8.3
2019-03-25T01:14:50.460Z,8.3
2019-03-25T01:19:50.345Z,8.3
2019-03-25T01:25:00.923Z,8.3
2019-03-25T01:29:50.425Z,8.3
2019-03-25T01:34:50.563Z,8.4
2019-03-25T01:39:50.669Z,8.2
2019-03-25T01:44:50.640Z,7.8
2019-03-25T01:49:50.356Z,7.6
2019-03-25T01:54:50.506Z,7.4
2019-03-25T01:59:50.313Z,7.3
2019-03-25T02:04:50.363Z,7.2
2019-03-25T02:09:50.757Z,7.4
2019-03-25T02:14:50.428Z,7.3
2019-03-25T02:19:50.619Z,7.5
2019-03-25T02:24:50.365Z,7.3
2019-03-25T02:29:50.495Z,7.6
2019-03-25T02:34:50.575Z,7.5
2019-03-25T02:39:50.545Z,7.6
2019-03-25T02:44:50.579Z,7.3
2019-03-25T02:49:50.584Z,7.4
2019-03-25T02:54:50.453Z,7.3
2019-03-25T02:59:50.398Z,7.2
2019-03-25T03:04:50.559Z,7.2
2019-03-25T03:09:50.235Z,7.4
2019-03-25T03:14:50.540Z,7.2
2019-03-25T03:19:50.435Z,7.3
2019-03-25T03:24:50.411Z,7.2
2019-03-25T03:29:50.351Z,7.3
2019-03-25T03:34:50.609Z,7.2
2019-03-25T03:39:50.458Z,7.1
2019-03-25T03:44:50.533Z,7
2019-03-25T03:49:50.568Z,6.9
2019-03-25T03:54:50.302Z,6.9
2019-03-25T03:59:50.414Z,6.8
2019-03-25T04:04:50.421Z,6.9
2019-03-25T04:09:50.342Z,6.9
2019-03-25T04:14:50.380Z,6.8
2019-03-25T04:19:50.559Z,6.9
2019-03-25T04:24:50.244Z,6.9
2019-03-25T04:29:50.596Z,6.8
2019-03-25T04:34:50.533Z,6.8
2019-03-25T04:39:50.451Z,6.9
2019-03-25T04:44:50.407Z,6.9
2019-03-25T04:49:50.463Z,6.8
2019-03-25T04:54:50.303Z,6.8
2019-03-25T04:59:50.283Z,6.8
2019-03-25T05:04:50.325Z,6.8
2019-03-25T05:09:50.681Z,6.8
2019-03-25T05:14:50.267Z,6.9
2019-03-25T05:19:50.133Z,6.9
2019-03-25T05:24:50.413Z,7
2019-03-25T05:29:50.233Z,7.1
2019-03-25T05:34:50.170Z,7.1
2019-03-25T05:39:50.126Z,7.1
2019-03-25T05:44:50.406Z,7.2
2019-03-25T05:49:50.461Z,7.1
2019-03-25T05:54:50.088Z,7.1
2019-03-25T05:59:50.391Z,7
2019-03-25T06:04:50.209Z,7.2
2019-03-25T06:09:49.974Z,7.3
2019-03-25T06:14:50.369Z,7.2
2019-03-25T06:19:50.110Z,7.5
2019-03-25T06:24:50.239Z,7.5
2019-03-25T06:29:50.249Z,7.6
2019-03-25T06:34:50.346Z,7.6
2019-03-25T06:39:50.085Z,7.6
2019-03-25T06:44:50.063Z,7.8
2019-03-25T06:49:50.249Z,7.7
2019-03-25T06:54:50.036Z,7.7
2019-03-25T06:59:50.109Z,7.7
2019-03-25T07:04:50.115Z,6.6
2019-03-25T07:09:50.028Z,6.2
2019-03-25T07:14:50.111Z,6.2
2019-03-25T07:19:50.189Z,6
2019-03-25T07:24:50.129Z,6
2019-03-25T07:29:50.120Z,6.1
2019-03-25T07:34:50.007Z,6.6
2019-03-25T07:39:50.315Z,6.7
2019-03-25T07:44:49.998Z,6.9
2019-03-25T07:49:50.119Z,7
2019-03-25T07:54:50.232Z,7.2
2019-03-25T07:59:50.246Z,7.1
2019-03-25T08:04:50.102Z,7.2
2019-03-25T08:09:49.752Z,7.5
2019-03-25T08:14:50.133Z,7.9
2019-03-25T08:19:49.816Z,8.1
2019-03-25T08:24:50.053Z,8.4
2019-03-25T08:29:50.052Z,8.2
2019-03-25T08:34:50.005Z,8.1
2019-03-25T08:39:50.014Z,8.3
2019-03-25T08:44:50.182Z,8.1
2019-03-25T08:49:50.108Z,8.4
2019-03-25T08:54:49.819Z,8.7
2019-03-25T08:59:50.164Z,8.6
2019-03-25T09:04:49.806Z,8.7
2019-03-25T09:09:49.916Z,8.8
2019-03-25T09:14:49.998Z,9.1
2019-03-25T09:19:49.874Z,8.9
2019-03-25T09:24:49.904Z,8.9
2019-03-25T09:29:49.909Z,9.1
2019-03-25T09:34:49.974Z,9.7
2019-03-25T09:39:50.005Z,9.7
2019-03-25T09:44:49.668Z,9.4
2019-03-25T09:49:49.970Z,9.6
2019-03-25T09:54:49.941Z,9.4
2019-03-25T09:59:49.893Z,9.4
2019-03-25T10:04:49.928Z,9.7
2019-03-25T10:09:49.998Z,9.6
2019-03-25T10:14:49.942Z,9.5
2019-03-25T10:19:49.950Z,9.8
2019-03-25T10:24:49.540Z,9.8
2019-03-25T10:29:50.110Z,9
2019-03-25T10:34:49.856Z,8.7
2019-03-25T10:39:49.758Z,9.1
2019-03-25T10:44:49.836Z,9.7
2019-03-25T10:49:49.974Z,9.3
2019-03-25T10:54:49.773Z,9.4
2019-03-25T10:59:50.053Z,9.9
2019-03-25T11:04:49.837Z,9.7
2019-03-25T11:09:49.913Z,10
2019-03-25T11:14:49.689Z,10
2019-03-25T11:19:49.754Z,10.2
2019-03-25T11:24:49.760Z,10.1
2019-03-25T11:29:49.740Z,10.7
2019-03-25T11:34:49.854Z,10.8
2019-03-25T11:39:49.636Z,10.4
2019-03-25T11:44:49.892Z,10.5
2019-03-25T11:49:49.927Z,10.4
2019-03-25T11:54:49.640Z,10.7
2019-03-25T11:59:49.454Z,10.3
2019-03-25T12:04:49.601Z,10.2
2019-03-25T12:09:49.904Z,10.5
2019-03-25T12:14:50.009Z,10.8
2019-03-25T12:19:49.752Z,10.9
2019-03-25T12:24:49.807Z,10.8
2019-03-25T12:29:49.577Z,10.6
2019-03-25T12:34:49.545Z,10.9
2019-03-25T12:39:49.628Z,11
2019-03-25T12:44:49.650Z,10.7
2019-03-25T12:49:49.698Z,10.4
2019-03-25T12:54:49.574Z,10.1
2019-03-25T12:59:49.587Z,10.1
2019-03-25T13:04:49.418Z,10.3
2019-03-25T13:09:49.455Z,10.7
2019-03-25T13:14:49.727Z,10.5
2019-03-25T13:19:49.532Z,10.3
2019-03-25T13:24:49.594Z,10.3
2019-03-25T13:29:52.883Z,10.2
2019-03-25T13:34:49.376Z,10.3
2019-03-25T13:39:49.386Z,10.1
2019-03-25T13:44:49.565Z,10.1
2019-03-25T13:49:49.412Z,10.5
2019-03-25T13:54:49.427Z,10.3
2019-03-25T13:59:49.365Z,10.4
2019-03-25T14:04:49.590Z,10.1
2019-03-25T14:09:49.724Z,10.1
2019-03-25T14:14:49.267Z,10.1
2019-03-25T14:19:49.697Z,10.1
2019-03-25T14:24:49.523Z,10.1
2019-03-25T14:29:49.602Z,10
2019-03-25T14:34:49.710Z,10
2019-03-25T14:39:49.386Z,10.1
2019-03-25T14:44:49.367Z,10
2019-03-25T14:49:49.529Z,9.9
2019-03-25T14:54:49.362Z,10
2019-03-25T14:59:50.225Z,10
2019-03-25T15:04:49.407Z,10.2
2019-03-25T15:09:49.184Z,10
2019-03-25T15:14:49.491Z,9.9
2019-03-25T15:19:49.197Z,10
2019-03-25T15:24:49.197Z,10.4
2019-03-25T15:29:49.567Z,10.4
2019-03-25T15:34:49.167Z,10.2
2019-03-25T15:39:49.378Z,10.2
2019-03-25T15:44:49.377Z,10.3
2019-03-25T15:49:49.482Z,10.3
2019-03-25T15:54:49.443Z,10.4
2019-03-25T15:59:49.500Z,10.3
2019-03-25T16:04:49.263Z,11.3
2019-03-25T16:09:49.390Z,10.3
2019-03-25T16:14:49.195Z,10.4
2019-03-25T16:19:49.396Z,10.1
2019-03-25T16:24:49.228Z,10.2
2019-03-25T16:29:49.250Z,9.8
2019-03-25T16:34:49.146Z,9.9
2019-03-25T16:39:49.489Z,9.8
2019-03-25T16:44:49.204Z,9.9
2019-03-25T16:49:49.424Z,9.9
2019-03-25T16:54:49.106Z,9.8
2019-03-25T16:59:49.233Z,9.5
2019-03-25T17:04:49.096Z,9.5
2019-03-25T17:09:49.289Z,9.4
2019-03-25T17:14:49.383Z,9.3
2019-03-25T17:19:49.243Z,9.2
2019-03-25T17:24:48.978Z,9.2
2019-03-25T17:29:49.436Z,9.2
2019-03-25T17:34:49.307Z,9.1
2019-03-25T17:39:49.103Z,9.1
2019-03-25T17:44:49.366Z,9.3
2019-03-25T17:49:49.196Z,9.3
2019-03-25T17:54:49.058Z,9.2
2019-03-25T17:59:49.063Z,9.1
2019-03-25T18:04:49.238Z,9
2019-03-25T18:09:49.237Z,9
2019-03-25T18:14:49.062Z,9
2019-03-25T18:19:49.330Z,8.9
2019-03-25T18:24:48.927Z,9
2019-03-25T18:29:49.233Z,8.8
2019-03-25T18:34:48.926Z,8.8
2019-03-25T18:39:49.209Z,8.6
2019-03-25T18:44:49.013Z,8.8
2019-03-25T18:49:49.282Z,8.8
2019-03-25T18:54:49.222Z,8.9
2019-03-25T18:59:48.787Z,8.7
2019-03-25T19:04:49.021Z,8.6
2019-03-25T19:09:49.283Z,8.6
2019-03-25T19:14:48.810Z,8.6
2019-03-25T19:19:49.125Z,8.6
2019-03-25T19:24:48.942Z,8.5
2019-03-25T19:29:48.940Z,8.6
2019-03-25T19:34:49.093Z,8.6
2019-03-25T19:39:48.991Z,8.6
2019-03-25T19:44:49.084Z,8.8
2019-03-25T19:49:48.943Z,8.6
2019-03-25T19:54:48.928Z,8.6
2019-03-25T19:59:48.774Z,8.7
2019-03-25T20:04:48.862Z,8.3
2019-03-25T20:09:48.948Z,8.4
2019-03-25T20:14:48.906Z,8.5
2019-03-25T20:19:48.833Z,8.4
2019-03-25T20:24:48.827Z,8.3
2019-03-25T20:29:48.955Z,8.4
2019-03-25T20:34:48.919Z,8.5
2019-03-25T20:39:49.105Z,8.5
2019-03-25T20:44:48.762Z,8.4
2019-03-25T20:49:49.093Z,8.7
2019-03-25T20:54:48.754Z,8.4
2019-03-25T20:59:48.972Z,8.5
2019-03-25T21:04:49.127Z,8.6
2019-03-25T21:09:49.077Z,8.6
2019-03-25T21:14:48.814Z,8.6
2019-03-25T21:19:48.808Z,8.5
2019-03-25T21:24:49.038Z,8.4
2019-03-25T21:29:48.824Z,8.4
2019-03-25T21:34:48.639Z,8.4
2019-03-25T21:39:48.842Z,8.3
2019-03-25T21:44:48.835Z,8.5
2019-03-25T21:49:48.885Z,8.6
2019-03-25T21:54:49.010Z,8.6
2019-03-25T21:59:49.067Z,8.4
2019-03-25T22:04:48.724Z,8.4
2019-03-25T22:09:49.009Z,8.6
2019-03-25T22:14:48.918Z,8.5
2019-03-25T22:19:48.927Z,8.3
2019-03-25T22:24:48.704Z,8.2
2019-03-25T22:29:48.772Z,8.2
2019-03-25T22:34:48.856Z,8.3
2019-03-25T22:39:48.890Z,8.3
2019-03-25T22:44:48.881Z,8.2
2019-03-25T22:49:48.552Z,8.4
2019-03-25T22:54:48.641Z,8.4
2019-03-25T23:04:48.762Z,8.2
2019-03-25T23:09:48.828Z,8.1
2019-03-25T23:14:48.652Z,8.1
2019-03-25T23:19:48.723Z,8.1
2019-03-25T23:24:48.588Z,8.2
2019-03-25T23:29:48.485Z,8.1
2019-03-25T23:34:48.569Z,8.2
2019-03-25T23:39:48.508Z,8.1
2019-03-25T23:44:48.619Z,8.1
2019-03-25T23:49:48.458Z,8
2019-03-25T23:54:48.528Z,8
2019-03-25T23:59:48.363Z,8.2
